sensor_id;sensor_type;location;lat;lon;timestamp;P1;durP1;ratioP1;P2;durP2;ratioP2
8562;SDS011;16392;52.508;13.468;2023-07-31T00:01:43;471.67;;;89.83;;
8562;SDS011;16392;52.508;13.468;2023-07-31T00:04:10;471.57;;;90.30;;
8562;SDS011;16392;52.508;13.468;2023-07-31T00:06:38;467.40;;;89.43;;
8562;SDS011;16392;52.508;13.468;2023-07-31T00:09:04;467.90;;;90.60;;
8562;SDS011;16392;52.508;13.468;2023-07-31T00:11:31;467.10;;;90.13;;
8562;SDS011;16392;52.508;13.468;2023-07-31T00:13:58;471.70;;;91.67;;
8562;SDS011;16392;52.508;13.468;2023-07-31T00:16:24;465.67;;;90.17;;
8562;SDS011;16392;52.508;13.468;2023-07-31T00:18:51;462.60;;;88.13;;
8562;SDS011;16392;52.508;13.468;2023-07-31T00:21:17;466.17;;;91.00;;
8562;SDS011;16392;52.508;13.468;2023-07-31T00:23:45;466.23;;;92.37;;
8562;SDS011;16392;52.508;13.468;2023-07-31T00:26:12;465.40;;;88.27;;
8562;SDS011;16392;52.508;13.468;2023-07-31T00:28:39;463.60;;;89.10;;
8562;SDS011;16392;52.508;13.468;2023-07-31T00:31:05;460.83;;;89.77;;
8562;SDS011;16392;52.508;13.468;2023-07-31T00:33:34;467.30;;;90.70;;
8562;SDS011;16392;52.508;13.468;2023-07-31T00:36:01;462.53;;;89.10;;
8562;SDS011;16392;52.508;13.468;2023-07-31T00:38:28;465.33;;;90.13;;
8562;SDS011;16392;52.508;13.468;2023-07-31T00:40:56;463.60;;;92.57;;
8562;SDS011;16392;52.508;13.468;2023-07-31T00:43:23;460.73;;;89.07;;
8562;SDS011;16392;52.508;13.468;2023-07-31T00:45:50;460.70;;;90.33;;
8562;SDS011;16392;52.508;13.468;2023-07-31T00:48:17;463.97;;;90.20;;
8562;SDS011;16392;52.508;13.468;2023-07-31T00:50:43;466.03;;;89.93;;
8562;SDS011;16392;52.508;13.468;2023-07-31T00:53:10;465.10;;;94.10;;
8562;SDS011;16392;52.508;13.468;2023-07-31T00:55:37;460.27;;;88.83;;
8562;SDS011;16392;52.508;13.468;2023-07-31T00:58:05;463.93;;;92.03;;
8562;SDS011;16392;52.508;13.468;2023-07-31T01:00:31;464.20;;;89.20;;
8562;SDS011;16392;52.508;13.468;2023-07-31T01:02:58;458.33;;;88.93;;
8562;SDS011;16392;52.508;13.468;2023-07-31T01:05:28;461.43;;;91.03;;
8562;SDS011;16392;52.508;13.468;2023-07-31T01:08:01;461.47;;;92.83;;
8562;SDS011;16392;52.508;13.468;2023-07-31T01:10:34;460.07;;;88.67;;
8562;SDS011;16392;52.508;13.468;2023-07-31T01:13:08;462.13;;;89.97;;
8562;SDS011;16392;52.508;13.468;2023-07-31T01:15:36;460.87;;;89.97;;
8562;SDS011;16392;52.508;13.468;2023-07-31T01:18:03;460.70;;;91.67;;
8562;SDS011;16392;52.508;13.468;2023-07-31T01:20:30;462.13;;;90.90;;
8562;SDS011;16392;52.508;13.468;2023-07-31T01:23:08;462.93;;;89.80;;
8562;SDS011;16392;52.508;13.468;2023-07-31T01:25:59;458.23;;;89.33;;
8562;SDS011;16392;52.508;13.468;2023-07-31T01:28:33;461.27;;;88.83;;
8562;SDS011;16392;52.508;13.468;2023-07-31T01:31:12;459.80;;;89.73;;
8562;SDS011;16392;52.508;13.468;2023-07-31T01:33:44;460.67;;;88.57;;
8562;SDS011;16392;52.508;13.468;2023-07-31T01:36:12;461.73;;;89.53;;
8562;SDS011;16392;52.508;13.468;2023-07-31T01:38:39;463.37;;;90.13;;
8562;SDS011;16392;52.508;13.468;2023-07-31T01:41:06;462.63;;;90.97;;
8562;SDS011;16392;52.508;13.468;2023-07-31T01:43:33;460.07;;;88.70;;
8562;SDS011;16392;52.508;13.468;2023-07-31T01:46:00;459.33;;;88.53;;
8562;SDS011;16392;52.508;13.468;2023-07-31T01:48:26;462.13;;;89.50;;
8562;SDS011;16392;52.508;13.468;2023-07-31T01:50:53;461.93;;;90.53;;
8562;SDS011;16392;52.508;13.468;2023-07-31T01:53:20;463.50;;;90.33;;
8562;SDS011;16392;52.508;13.468;2023-07-31T01:55:46;463.23;;;91.37;;
8562;SDS011;16392;52.508;13.468;2023-07-31T01:58:14;461.10;;;90.23;;
8562;SDS011;16392;52.508;13.468;2023-07-31T02:00:41;459.97;;;88.27;;
8562;SDS011;16392;52.508;13.468;2023-07-31T02:03:07;466.40;;;90.33;;
8562;SDS011;16392;52.508;13.468;2023-07-31T02:05:34;460.10;;;90.30;;
8562;SDS011;16392;52.508;13.468;2023-07-31T02:08:01;463.33;;;91.10;;
8562;SDS011;16392;52.508;13.468;2023-07-31T02:10:28;461.13;;;92.00;;
8562;SDS011;16392;52.508;13.468;2023-07-31T02:12:54;464.77;;;94.10;;
8562;SDS011;16392;52.508;13.468;2023-07-31T02:15:24;463.77;;;92.03;;
8562;SDS011;16392;52.508;13.468;2023-07-31T02:17:51;463.97;;;91.93;;
8562;SDS011;16392;52.508;13.468;2023-07-31T02:20:17;462.53;;;90.57;;
8562;SDS011;16392;52.508;13.468;2023-07-31T02:22:44;461.07;;;90.77;;
8562;SDS011;16392;52.508;13.468;2023-07-31T02:25:10;464.33;;;92.43;;
8562;SDS011;16392;52.508;13.468;2023-07-31T02:27:37;462.23;;;90.23;;
8562;SDS011;16392;52.508;13.468;2023-07-31T02:30:04;465.43;;;91.93;;
8562;SDS011;16392;52.508;13.468;2023-07-31T02:32:32;465.83;;;95.23;;
8562;SDS011;16392;52.508;13.468;2023-07-31T02:34:59;461.83;;;91.10;;
8562;SDS011;16392;52.508;13.468;2023-07-31T02:37:26;465.33;;;92.00;;
8562;SDS011;16392;52.508;13.468;2023-07-31T02:39:53;462.77;;;93.33;;
8562;SDS011;16392;52.508;13.468;2023-07-31T02:42:20;463.20;;;92.40;;
8562;SDS011;16392;52.508;13.468;2023-07-31T02:44:47;462.90;;;90.13;;
8562;SDS011;16392;52.508;13.468;2023-07-31T02:47:14;462.10;;;90.90;;
8562;SDS011;16392;52.508;13.468;2023-07-31T02:49:43;464.40;;;91.63;;
8562;SDS011;16392;52.508;13.468;2023-07-31T02:52:10;465.60;;;93.33;;
8562;SDS011;16392;52.508;13.468;2023-07-31T02:54:36;462.57;;;88.40;;
8562;SDS011;16392;52.508;13.468;2023-07-31T02:57:03;461.10;;;93.90;;
8562;SDS011;16392;52.508;13.468;2023-07-31T02:59:30;464.30;;;91.40;;
8562;SDS011;16392;52.508;13.468;2023-07-31T03:01:57;465.73;;;93.03;;
8562;SDS011;16392;52.508;13.468;2023-07-31T03:04:24;462.07;;;92.43;;
8562;SDS011;16392;52.508;13.468;2023-07-31T03:06:52;461.93;;;91.13;;
8562;SDS011;16392;52.508;13.468;2023-07-31T03:09:18;463.20;;;90.40;;
8562;SDS011;16392;52.508;13.468;2023-07-31T03:11:45;460.90;;;93.47;;
8562;SDS011;16392;52.508;13.468;2023-07-31T03:14:12;464.37;;;92.43;;
8562;SDS011;16392;52.508;13.468;2023-07-31T03:16:38;456.30;;;89.53;;
8562;SDS011;16392;52.508;13.468;2023-07-31T03:19:05;462.93;;;93.43;;
8562;SDS011;16392;52.508;13.468;2023-07-31T03:21:32;461.77;;;92.47;;
8562;SDS011;16392;52.508;13.468;2023-07-31T03:24:00;457.73;;;91.17;;
8562;SDS011;16392;52.508;13.468;2023-07-31T03:26:26;459.07;;;90.10;;
8562;SDS011;16392;52.508;13.468;2023-07-31T03:28:54;458.00;;;89.70;;
8562;SDS011;16392;52.508;13.468;2023-07-31T03:31:21;460.10;;;90.40;;
8562;SDS011;16392;52.508;13.468;2023-07-31T03:33:48;458.47;;;89.67;;
8562;SDS011;16392;52.508;13.468;2023-07-31T03:36:14;462.67;;;91.30;;
8562;SDS011;16392;52.508;13.468;2023-07-31T03:38:41;457.13;;;89.23;;
8562;SDS011;16392;52.508;13.468;2023-07-31T03:41:10;460.30;;;95.70;;
8562;SDS011;16392;52.508;13.468;2023-07-31T03:43:36;458.73;;;89.53;;
8562;SDS011;16392;52.508;13.468;2023-07-31T03:46:03;457.20;;;90.20;;
8562;SDS011;16392;52.508;13.468;2023-07-31T03:48:30;459.60;;;91.93;;
8562;SDS011;16392;52.508;13.468;2023-07-31T03:50:56;461.73;;;92.97;;
8562;SDS011;16392;52.508;13.468;2023-07-31T03:53:23;457.33;;;89.87;;
8562;SDS011;16392;52.508;13.468;2023-07-31T03:56:02;459.90;;;91.63;;
8562;SDS011;16392;52.508;13.468;2023-07-31T03:58:30;457.17;;;90.30;;
8562;SDS011;16392;52.508;13.468;2023-07-31T04:00:57;460.40;;;98.03;;
8562;SDS011;16392;52.508;13.468;2023-07-31T04:03:24;464.83;;;90.83;;
8562;SDS011;16392;52.508;13.468;2023-07-31T04:05:50;457.23;;;89.50;;
8562;SDS011;16392;52.508;13.468;2023-07-31T04:08:17;468.60;;;95.83;;
8562;SDS011;16392;52.508;13.468;2023-07-31T04:10:44;463.13;;;94.67;;
8562;SDS011;16392;52.508;13.468;2023-07-31T04:13:11;460.27;;;92.70;;
8562;SDS011;16392;52.508;13.468;2023-07-31T04:15:39;459.83;;;90.77;;
8562;SDS011;16392;52.508;13.468;2023-07-31T04:18:05;460.20;;;92.77;;
8562;SDS011;16392;52.508;13.468;2023-07-31T04:20:32;462.57;;;90.07;;
8562;SDS011;16392;52.508;13.468;2023-07-31T04:22:59;458.47;;;91.40;;
8562;SDS011;16392;52.508;13.468;2023-07-31T04:25:26;460.47;;;92.47;;
8562;SDS011;16392;52.508;13.468;2023-07-31T04:27:52;462.73;;;93.10;;
8562;SDS011;16392;52.508;13.468;2023-07-31T04:30:19;468.10;;;92.27;;
8562;SDS011;16392;52.508;13.468;2023-07-31T04:32:47;468.20;;;93.50;;
8562;SDS011;16392;52.508;13.468;2023-07-31T04:35:13;462.23;;;92.60;;
8562;SDS011;16392;52.508;13.468;2023-07-31T04:37:40;462.47;;;91.63;;
8562;SDS011;16392;52.508;13.468;2023-07-31T04:40:07;462.10;;;93.23;;
8562;SDS011;16392;52.508;13.468;2023-07-31T04:42:34;463.13;;;92.07;;
8562;SDS011;16392;52.508;13.468;2023-07-31T04:45:01;463.33;;;93.03;;
8562;SDS011;16392;52.508;13.468;2023-07-31T04:47:27;461.20;;;90.70;;
8562;SDS011;16392;52.508;13.468;2023-07-31T04:49:55;462.83;;;91.53;;
8562;SDS011;16392;52.508;13.468;2023-07-31T04:52:22;468.33;;;94.53;;
8562;SDS011;16392;52.508;13.468;2023-07-31T04:54:49;466.93;;;94.97;;
8562;SDS011;16392;52.508;13.468;2023-07-31T04:57:15;461.47;;;92.43;;
8562;SDS011;16392;52.508;13.468;2023-07-31T04:59:42;461.90;;;91.73;;
8562;SDS011;16392;52.508;13.468;2023-07-31T05:02:09;462.07;;;93.80;;
8562;SDS011;16392;52.508;13.468;2023-07-31T05:04:39;466.03;;;92.80;;
8562;SDS011;16392;52.508;13.468;2023-07-31T05:07:07;467.30;;;95.93;;
8562;SDS011;16392;52.508;13.468;2023-07-31T05:09:33;461.07;;;89.83;;
8562;SDS011;16392;52.508;13.468;2023-07-31T05:12:00;461.70;;;93.13;;
8562;SDS011;16392;52.508;13.468;2023-07-31T05:14:27;461.90;;;91.77;;
8562;SDS011;16392;52.508;13.468;2023-07-31T05:16:53;465.37;;;93.37;;
8562;SDS011;16392;52.508;13.468;2023-07-31T05:19:20;459.10;;;93.40;;
8562;SDS011;16392;52.508;13.468;2023-07-31T05:21:47;469.17;;;95.60;;
8562;SDS011;16392;52.508;13.468;2023-07-31T05:24:15;466.87;;;94.27;;
8562;SDS011;16392;52.508;13.468;2023-07-31T05:26:41;466.10;;;95.23;;
8562;SDS011;16392;52.508;13.468;2023-07-31T05:29:08;472.10;;;94.73;;
8562;SDS011;16392;52.508;13.468;2023-07-31T05:31:35;465.80;;;96.37;;
8562;SDS011;16392;52.508;13.468;2023-07-31T05:34:03;464.17;;;92.90;;
8562;SDS011;16392;52.508;13.468;2023-07-31T05:36:30;466.33;;;94.53;;
8562;SDS011;16392;52.508;13.468;2023-07-31T05:38:56;465.70;;;93.40;;
8562;SDS011;16392;52.508;13.468;2023-07-31T05:41:24;468.33;;;94.70;;
8562;SDS011;16392;52.508;13.468;2023-07-31T05:43:51;466.60;;;93.73;;
8562;SDS011;16392;52.508;13.468;2023-07-31T05:46:18;466.50;;;94.87;;
8562;SDS011;16392;52.508;13.468;2023-07-31T05:48:44;469.00;;;92.03;;
8562;SDS011;16392;52.508;13.468;2023-07-31T05:51:11;467.93;;;96.53;;
8562;SDS011;16392;52.508;13.468;2023-07-31T05:53:40;466.90;;;94.77;;
8562;SDS011;16392;52.508;13.468;2023-07-31T05:56:06;464.60;;;93.40;;
8562;SDS011;16392;52.508;13.468;2023-07-31T05:58:34;468.50;;;95.27;;
8562;SDS011;16392;52.508;13.468;2023-07-31T06:01:01;466.17;;;94.27;;
8562;SDS011;16392;52.508;13.468;2023-07-31T06:03:28;467.10;;;94.83;;
8562;SDS011;16392;52.508;13.468;2023-07-31T06:05:55;470.07;;;94.63;;
8562;SDS011;16392;52.508;13.468;2023-07-31T06:08:22;466.27;;;96.70;;
8562;SDS011;16392;52.508;13.468;2023-07-31T06:10:49;467.67;;;95.47;;
8562;SDS011;16392;52.508;13.468;2023-07-31T06:13:16;467.63;;;99.97;;
8562;SDS011;16392;52.508;13.468;2023-07-31T06:15:44;465.87;;;95.53;;
8562;SDS011;16392;52.508;13.468;2023-07-31T06:18:10;470.03;;;95.27;;
8562;SDS011;16392;52.508;13.468;2023-07-31T06:20:37;470.17;;;98.77;;
8562;SDS011;16392;52.508;13.468;2023-07-31T06:23:05;471.90;;;94.67;;
8562;SDS011;16392;52.508;13.468;2023-07-31T06:25:32;473.80;;;98.57;;
8562;SDS011;16392;52.508;13.468;2023-07-31T06:27:59;471.47;;;97.87;;
8562;SDS011;16392;52.508;13.468;2023-07-31T06:30:25;473.97;;;106.63;;
8562;SDS011;16392;52.508;13.468;2023-07-31T06:32:53;470.07;;;96.77;;
8562;SDS011;16392;52.508;13.468;2023-07-31T06:35:20;475.13;;;100.60;;
8562;SDS011;16392;52.508;13.468;2023-07-31T06:37:47;466.17;;;96.87;;
8562;SDS011;16392;52.508;13.468;2023-07-31T06:40:16;469.40;;;93.57;;
8562;SDS011;16392;52.508;13.468;2023-07-31T06:42:42;472.37;;;96.17;;
8562;SDS011;16392;52.508;13.468;2023-07-31T06:45:09;472.57;;;98.57;;
8562;SDS011;16392;52.508;13.468;2023-07-31T06:47:36;470.03;;;94.47;;
8562;SDS011;16392;52.508;13.468;2023-07-31T06:50:04;469.40;;;93.10;;
8562;SDS011;16392;52.508;13.468;2023-07-31T06:52:32;468.43;;;93.63;;
8562;SDS011;16392;52.508;13.468;2023-07-31T06:55:03;479.63;;;99.50;;
8562;SDS011;16392;52.508;13.468;2023-07-31T06:57:44;476.33;;;98.37;;
8562;SDS011;16392;52.508;13.468;2023-07-31T07:00:11;485.30;;;98.80;;
8562;SDS011;16392;52.508;13.468;2023-07-31T07:02:38;479.33;;;98.33;;
8562;SDS011;16392;52.508;13.468;2023-07-31T07:05:09;478.00;;;101.00;;
8562;SDS011;16392;52.508;13.468;2023-07-31T07:07:36;483.07;;;103.07;;
8562;SDS011;16392;52.508;13.468;2023-07-31T07:10:03;482.83;;;100.23;;
8562;SDS011;16392;52.508;13.468;2023-07-31T07:12:30;482.40;;;100.40;;
8562;SDS011;16392;52.508;13.468;2023-07-31T07:14:58;485.37;;;100.40;;
8562;SDS011;16392;52.508;13.468;2023-07-31T07:17:25;479.10;;;97.17;;
8562;SDS011;16392;52.508;13.468;2023-07-31T07:19:52;482.10;;;99.20;;
8562;SDS011;16392;52.508;13.468;2023-07-31T07:22:21;481.83;;;99.00;;
8562;SDS011;16392;52.508;13.468;2023-07-31T07:24:48;483.17;;;100.37;;
8562;SDS011;16392;52.508;13.468;2023-07-31T07:27:14;480.67;;;97.13;;
8562;SDS011;16392;52.508;13.468;2023-07-31T07:29:45;482.50;;;97.30;;
8562;SDS011;16392;52.508;13.468;2023-07-31T07:32:11;482.90;;;103.17;;
8562;SDS011;16392;52.508;13.468;2023-07-31T07:34:38;486.20;;;101.10;;
8562;SDS011;16392;52.508;13.468;2023-07-31T07:37:05;486.67;;;103.77;;
8562;SDS011;16392;52.508;13.468;2023-07-31T07:39:33;486.50;;;101.97;;
8562;SDS011;16392;52.508;13.468;2023-07-31T07:42:00;487.17;;;104.30;;
8562;SDS011;16392;52.508;13.468;2023-07-31T07:44:29;487.13;;;102.20;;
8562;SDS011;16392;52.508;13.468;2023-07-31T07:46:55;484.43;;;100.67;;
8562;SDS011;16392;52.508;13.468;2023-07-31T07:49:22;487.30;;;101.03;;
8562;SDS011;16392;52.508;13.468;2023-07-31T07:51:48;489.20;;;104.90;;
8562;SDS011;16392;52.508;13.468;2023-07-31T07:54:15;498.73;;;108.33;;
8562;SDS011;16392;52.508;13.468;2023-07-31T07:56:44;493.13;;;107.77;;
8562;SDS011;16392;52.508;13.468;2023-07-31T07:59:10;497.33;;;107.27;;
8562;SDS011;16392;52.508;13.468;2023-07-31T08:01:37;492.97;;;105.90;;
8562;SDS011;16392;52.508;13.468;2023-07-31T08:04:04;493.50;;;106.30;;
8562;SDS011;16392;52.508;13.468;2023-07-31T08:06:31;490.57;;;107.57;;
8562;SDS011;16392;52.508;13.468;2023-07-31T08:08:59;497.17;;;110.53;;
8562;SDS011;16392;52.508;13.468;2023-07-31T08:11:30;493.60;;;109.33;;
8562;SDS011;16392;52.508;13.468;2023-07-31T08:13:58;497.10;;;111.70;;
8562;SDS011;16392;52.508;13.468;2023-07-31T08:16:25;495.50;;;110.07;;
8562;SDS011;16392;52.508;13.468;2023-07-31T08:18:51;492.17;;;107.97;;
8562;SDS011;16392;52.508;13.468;2023-07-31T08:21:18;490.70;;;107.10;;
8562;SDS011;16392;52.508;13.468;2023-07-31T08:23:44;487.43;;;106.43;;
8562;SDS011;16392;52.508;13.468;2023-07-31T08:26:14;491.03;;;106.40;;
8562;SDS011;16392;52.508;13.468;2023-07-31T08:28:41;486.43;;;102.43;;
8562;SDS011;16392;52.508;13.468;2023-07-31T08:31:09;486.50;;;103.40;;
8562;SDS011;16392;52.508;13.468;2023-07-31T08:33:35;489.67;;;104.57;;
8562;SDS011;16392;52.508;13.468;2023-07-31T08:36:02;487.90;;;103.53;;
8562;SDS011;16392;52.508;13.468;2023-07-31T08:38:29;487.30;;;102.37;;
8562;SDS011;16392;52.508;13.468;2023-07-31T08:40:56;483.47;;;104.30;;
8562;SDS011;16392;52.508;13.468;2023-07-31T08:43:24;483.70;;;100.93;;
8562;SDS011;16392;52.508;13.468;2023-07-31T08:45:52;493.67;;;107.60;;
8562;SDS011;16392;52.508;13.468;2023-07-31T08:48:20;485.00;;;103.03;;
8562;SDS011;16392;52.508;13.468;2023-07-31T08:50:48;486.70;;;103.23;;
8562;SDS011;16392;52.508;13.468;2023-07-31T08:53:15;486.57;;;103.40;;
8562;SDS011;16392;52.508;13.468;2023-07-31T08:55:42;488.07;;;104.80;;
8562;SDS011;16392;52.508;13.468;2023-07-31T08:58:10;490.87;;;105.43;;
8562;SDS011;16392;52.508;13.468;2023-07-31T09:00:38;489.33;;;108.23;;
8562;SDS011;16392;52.508;13.468;2023-07-31T09:03:07;491.70;;;106.20;;
8562;SDS011;16392;52.508;13.468;2023-07-31T09:05:41;490.13;;;108.80;;
8562;SDS011;16392;52.508;13.468;2023-07-31T09:08:09;487.90;;;106.87;;
8562;SDS011;16392;52.508;13.468;2023-07-31T09:10:39;490.30;;;108.13;;
8562;SDS011;16392;52.508;13.468;2023-07-31T09:13:07;492.73;;;110.13;;
8562;SDS011;16392;52.508;13.468;2023-07-31T09:15:34;490.80;;;108.60;;
8562;SDS011;16392;52.508;13.468;2023-07-31T09:18:02;497.73;;;112.47;;
8562;SDS011;16392;52.508;13.468;2023-07-31T09:20:29;499.03;;;116.67;;
8562;SDS011;16392;52.508;13.468;2023-07-31T09:23:04;496.17;;;111.97;;
8562;SDS011;16392;52.508;13.468;2023-07-31T09:25:32;491.03;;;111.00;;
8562;SDS011;16392;52.508;13.468;2023-07-31T09:28:00;488.63;;;108.70;;
8562;SDS011;16392;52.508;13.468;2023-07-31T09:30:28;489.37;;;109.70;;
8562;SDS011;16392;52.508;13.468;2023-07-31T09:32:59;489.77;;;108.63;;
8562;SDS011;16392;52.508;13.468;2023-07-31T09:35:28;490.10;;;108.73;;
8562;SDS011;16392;52.508;13.468;2023-07-31T09:37:55;485.43;;;105.93;;
8562;SDS011;16392;52.508;13.468;2023-07-31T09:40:29;481.90;;;103.03;;
8562;SDS011;16392;52.508;13.468;2023-07-31T09:42:58;480.10;;;102.57;;
8562;SDS011;16392;52.508;13.468;2023-07-31T09:45:26;479.70;;;101.57;;
8562;SDS011;16392;52.508;13.468;2023-07-31T09:47:53;480.83;;;101.33;;
8562;SDS011;16392;52.508;13.468;2023-07-31T09:50:21;480.30;;;101.73;;
8562;SDS011;16392;52.508;13.468;2023-07-31T09:52:49;477.57;;;100.10;;
8562;SDS011;16392;52.508;13.468;2023-07-31T09:55:17;478.17;;;100.27;;
8562;SDS011;16392;52.508;13.468;2023-07-31T09:57:45;477.67;;;97.60;;
8562;SDS011;16392;52.508;13.468;2023-07-31T10:00:14;483.70;;;104.03;;
8562;SDS011;16392;52.508;13.468;2023-07-31T10:02:41;480.07;;;101.33;;
8562;SDS011;16392;52.508;13.468;2023-07-31T10:05:12;485.60;;;103.70;;
8562;SDS011;16392;52.508;13.468;2023-07-31T10:07:42;487.27;;;105.73;;
8562;SDS011;16392;52.508;13.468;2023-07-31T10:10:09;490.13;;;107.47;;
8562;SDS011;16392;52.508;13.468;2023-07-31T10:12:36;490.53;;;106.70;;
8562;SDS011;16392;52.508;13.468;2023-07-31T10:15:05;490.13;;;106.03;;
8562;SDS011;16392;52.508;13.468;2023-07-31T10:17:34;495.53;;;109.17;;
8562;SDS011;16392;52.508;13.468;2023-07-31T10:20:02;493.17;;;111.30;;
8562;SDS011;16392;52.508;13.468;2023-07-31T10:22:30;492.00;;;111.47;;
8562;SDS011;16392;52.508;13.468;2023-07-31T10:24:57;497.60;;;112.30;;
8562;SDS011;16392;52.508;13.468;2023-07-31T10:27:25;496.23;;;112.77;;
8562;SDS011;16392;52.508;13.468;2023-07-31T10:29:52;497.87;;;111.93;;
8562;SDS011;16392;52.508;13.468;2023-07-31T10:32:22;494.60;;;111.77;;
8562;SDS011;16392;52.508;13.468;2023-07-31T10:34:50;493.17;;;107.87;;
8562;SDS011;16392;52.508;13.468;2023-07-31T10:37:24;487.07;;;107.53;;
8562;SDS011;16392;52.508;13.468;2023-07-31T10:39:56;492.47;;;109.93;;
8562;SDS011;16392;52.508;13.468;2023-07-31T10:42:27;489.93;;;112.20;;
8562;SDS011;16392;52.508;13.468;2023-07-31T10:44:57;495.00;;;112.83;;
8562;SDS011;16392;52.508;13.468;2023-07-31T10:47:25;489.73;;;107.47;;
8562;SDS011;16392;52.508;13.468;2023-07-31T10:49:52;494.57;;;111.43;;
8562;SDS011;16392;52.508;13.468;2023-07-31T10:52:19;500.30;;;122.00;;
8562;SDS011;16392;52.508;13.468;2023-07-31T10:54:48;503.10;;;127.20;;
8562;SDS011;16392;52.508;13.468;2023-07-31T10:57:18;504.80;;;138.65;;
8562;SDS011;16392;52.508;13.468;2023-07-31T10:59:46;514.03;;;185.02;;
8562;SDS011;16392;52.508;13.468;2023-07-31T11:02:23;518.60;;;212.60;;
8562;SDS011;16392;52.508;13.468;2023-07-31T11:05:08;518.13;;;212.27;;
8562;SDS011;16392;52.508;13.468;2023-07-31T11:07:47;516.35;;;206.60;;
8562;SDS011;16392;52.508;13.468;2023-07-31T11:10:18;521.45;;;232.38;;
8562;SDS011;16392;52.508;13.468;2023-07-31T11:12:45;520.78;;;235.60;;
8562;SDS011;16392;52.508;13.468;2023-07-31T11:15:12;529.58;;;266.13;;
8562;SDS011;16392;52.508;13.468;2023-07-31T11:17:40;518.88;;;242.07;;
8562;SDS011;16392;52.508;13.468;2023-07-31T11:20:07;523.25;;;227.80;;
8562;SDS011;16392;52.508;13.468;2023-07-31T11:22:34;514.28;;;218.35;;
8562;SDS011;16392;52.508;13.468;2023-07-31T11:25:02;522.38;;;242.00;;
8562;SDS011;16392;52.508;13.468;2023-07-31T11:27:29;520.03;;;242.32;;
8562;SDS011;16392;52.508;13.468;2023-07-31T11:29:59;521.55;;;251.73;;
8562;SDS011;16392;52.508;13.468;2023-07-31T11:32:27;525.33;;;261.52;;
8562;SDS011;16392;52.508;13.468;2023-07-31T11:34:55;522.45;;;255.93;;
8562;SDS011;16392;52.508;13.468;2023-07-31T11:37:22;523.58;;;250.00;;
8562;SDS011;16392;52.508;13.468;2023-07-31T11:39:59;528.00;;;251.27;;
8562;SDS011;16392;52.508;13.468;2023-07-31T11:42:25;522.15;;;261.65;;
8562;SDS011;16392;52.508;13.468;2023-07-31T11:44:52;525.75;;;268.38;;
8562;SDS011;16392;52.508;13.468;2023-07-31T11:47:19;524.70;;;264.15;;
8562;SDS011;16392;52.508;13.468;2023-07-31T11:49:46;529.33;;;272.88;;
8562;SDS011;16392;52.508;13.468;2023-07-31T11:52:16;520.50;;;243.60;;
8562;SDS011;16392;52.508;13.468;2023-07-31T11:54:45;521.15;;;245.48;;
8562;SDS011;16392;52.508;13.468;2023-07-31T11:57:12;524.05;;;269.67;;
8562;SDS011;16392;52.508;13.468;2023-07-31T11:59:39;520.28;;;250.45;;
8562;SDS011;16392;52.508;13.468;2023-07-31T12:02:06;520.67;;;236.48;;
8562;SDS011;16392;52.508;13.468;2023-07-31T12:04:33;519.38;;;237.75;;
8562;SDS011;16392;52.508;13.468;2023-07-31T12:07:00;519.20;;;225.52;;
8562;SDS011;16392;52.508;13.468;2023-07-31T12:09:28;515.35;;;199.98;;
8562;SDS011;16392;52.508;13.468;2023-07-31T12:11:55;513.65;;;203.90;;
8562;SDS011;16392;52.508;13.468;2023-07-31T12:14:27;510.00;;;189.23;;
8562;SDS011;16392;52.508;13.468;2023-07-31T12:16:55;517.15;;;198.45;;
8562;SDS011;16392;52.508;13.468;2023-07-31T12:19:22;516.53;;;208.45;;
8562;SDS011;16392;52.508;13.468;2023-07-31T12:21:49;518.70;;;227.57;;
8562;SDS011;16392;52.508;13.468;2023-07-31T12:24:18;521.55;;;238.85;;
8562;SDS011;16392;52.508;13.468;2023-07-31T12:26:46;521.33;;;241.27;;
8562;SDS011;16392;52.508;13.468;2023-07-31T12:29:14;528.17;;;272.13;;
8562;SDS011;16392;52.508;13.468;2023-07-31T12:31:41;520.60;;;249.18;;
8562;SDS011;16392;52.508;13.468;2023-07-31T12:34:15;522.10;;;243.43;;
8562;SDS011;16392;52.508;13.468;2023-07-31T12:36:46;515.63;;;221.02;;
8562;SDS011;16392;52.508;13.468;2023-07-31T12:39:14;533.05;;;287.20;;
8562;SDS011;16392;52.508;13.468;2023-07-31T12:41:41;526.88;;;264.02;;
8562;SDS011;16392;52.508;13.468;2023-07-31T12:44:09;535.60;;;313.77;;
8562;SDS011;16392;52.508;13.468;2023-07-31T12:46:36;523.08;;;271.55;;
8562;SDS011;16392;52.508;13.468;2023-07-31T12:49:03;532.15;;;315.08;;
8562;SDS011;16392;52.508;13.468;2023-07-31T12:51:30;532.90;;;307.70;;
8562;SDS011;16392;52.508;13.468;2023-07-31T12:53:56;531.22;;;305.70;;
8562;SDS011;16392;52.508;13.468;2023-07-31T12:56:23;526.15;;;272.30;;
8562;SDS011;16392;52.508;13.468;2023-07-31T12:58:50;527.55;;;271.40;;
8562;SDS011;16392;52.508;13.468;2023-07-31T13:01:18;524.38;;;271.73;;
8562;SDS011;16392;52.508;13.468;2023-07-31T13:03:44;520.33;;;251.00;;
8562;SDS011;16392;52.508;13.468;2023-07-31T13:06:11;523.10;;;267.98;;
8562;SDS011;16392;52.508;13.468;2023-07-31T13:08:38;527.42;;;271.88;;
8562;SDS011;16392;52.508;13.468;2023-07-31T13:11:05;516.28;;;231.35;;
8562;SDS011;16392;52.508;13.468;2023-07-31T13:13:31;516.45;;;217.48;;
8562;SDS011;16392;52.508;13.468;2023-07-31T13:15:58;514.05;;;210.10;;
8562;SDS011;16392;52.508;13.468;2023-07-31T13:18:26;513.22;;;213.15;;
8562;SDS011;16392;52.508;13.468;2023-07-31T13:20:53;515.88;;;214.57;;
8562;SDS011;16392;52.508;13.468;2023-07-31T13:23:19;518.25;;;217.50;;
8562;SDS011;16392;52.508;13.468;2023-07-31T13:25:46;517.97;;;232.40;;
8562;SDS011;16392;52.508;13.468;2023-07-31T13:28:13;518.45;;;235.05;;
8562;SDS011;16392;52.508;13.468;2023-07-31T13:30:41;521.85;;;239.23;;
8562;SDS011;16392;52.508;13.468;2023-07-31T13:33:08;516.88;;;228.98;;
8562;SDS011;16392;52.508;13.468;2023-07-31T13:35:36;513.33;;;203.20;;
8562;SDS011;16392;52.508;13.468;2023-07-31T13:38:02;515.53;;;215.18;;
8562;SDS011;16392;52.508;13.468;2023-07-31T13:40:30;518.22;;;221.88;;
8562;SDS011;16392;52.508;13.468;2023-07-31T13:42:57;526.70;;;271.45;;
8562;SDS011;16392;52.508;13.468;2023-07-31T13:45:23;529.63;;;284.08;;
8562;SDS011;16392;52.508;13.468;2023-07-31T13:47:50;530.47;;;296.20;;
8562;SDS011;16392;52.508;13.468;2023-07-31T13:50:17;538.42;;;308.15;;
8562;SDS011;16392;52.508;13.468;2023-07-31T13:52:47;535.15;;;305.60;;
8562;SDS011;16392;52.508;13.468;2023-07-31T13:55:14;542.80;;;354.13;;
8562;SDS011;16392;52.508;13.468;2023-07-31T13:57:41;537.78;;;337.05;;
8562;SDS011;16392;52.508;13.468;2023-07-31T14:00:08;544.53;;;349.55;;
8562;SDS011;16392;52.508;13.468;2023-07-31T14:02:36;538.22;;;346.33;;
8562;SDS011;16392;52.508;13.468;2023-07-31T14:05:02;540.33;;;336.92;;
8562;SDS011;16392;52.508;13.468;2023-07-31T14:07:30;537.28;;;333.48;;